Time;durP1;ratioP1;P1;durP2;ratioP2;P2;SDS_P1;SDS_P2;PMS_P1;PMS_P2;Temp;Humidity;BMP_temperature;BMP_pressure;BME280_temperature;BME280_humidity;BME280_pressure;Samples;Min_cycle;Max_cycle;Signal;HPM_P1;HPM_P2
2023/02/16 00:01:33;;;;;;;27.00;20.87;;;;;;;2.71;81.23;99767.88;5020348;27;102875;-68
2023/02/16 00:04:02;;;;;;;30.70;22.13;;;;;;;2.42;81.45;99765.94;5014011;27;102740;-70
2023/02/16 00:06:29;;;;;;;33.47;22.17;;;;;;;2.55;81.21;99772.63;5018054;27;103820;-70
2023/02/16 00:08:59;;;;;;;32.33;22.23;;;;;;;2.02;84.44;99765.13;5019764;27;103262;-69
2023/02/16 00:14:24;;;;;;;29.80;20.57;;;;;;;2.51;82.29;99770.09;5019243;27;104050;-69
2023/02/16 00:16:56;;;;;;;29.13;21.07;;;;;;;2.44;81.30;99779.84;5022212;27;104090;-69
2023/02/16 00:19:26;;;;;;;26.20;19.20;;;;;;;2.54;81.01;99770.88;5025188;27;103286;-69
2023/02/16 00:21:56;;;;;;;25.40;17.73;;;;;;;2.57;80.33;99773.44;5005448;27;102809;-70
2023/02/16 00:24:29;;;;;;;32.53;22.00;;;;;;;2.18;81.61;99771.72;5018097;27;102820;-69
2023/02/16 00:26:58;;;;;;;34.23;21.67;;;;;;;2.27;81.80;99761.94;5018689;27;103934;-69
2023/02/16 00:29:28;;;;;;;29.23;20.10;;;;;;;2.21;82.07;99769.03;5016040;27;103334;-70
2023/02/16 00:31:57;;;;;;;18.17;15.80;;;;;;;2.31;82.80;99766.19;5022523;27;102829;-70
2023/02/16 00:34:28;;;;;;;22.23;15.70;;;;;;;2.16;83.12;99773.50;5022651;27;104117;-69
2023/02/16 00:36:58;;;;;;;19.83;15.23;;;;;;;2.41;82.79;99774.69;5018046;27;104024;-70
2023/02/16 00:39:27;;;;;;;22.23;16.10;;;;;;;2.51;81.91;99776.19;5024625;27;103425;-69
2023/02/16 00:41:59;;;;;;;27.37;20.53;;;;;;;2.15;79.80;99777.00;5018079;27;102778;-68
2023/02/16 00:44:35;;;;;;;20.07;14.87;;;;;;;2.36;80.86;99776.50;5007070;27;102744;-69
2023/02/16 00:47:15;;;;;;;30.97;20.73;;;;;;;1.53;82.86;99776.53;5024732;27;103037;-69
2023/02/16 00:49:43;;;;;;;27.77;19.40;;;;;;;1.83;83.92;99775.06;5017571;27;104178;-69
2023/02/16 00:52:27;;;;;;;21.10;14.63;;;;;;;2.13;83.06;99773.56;5019297;27;102819;-69
2023/02/16 00:54:57;;;;;;;23.20;15.87;;;;;;;2.25;81.88;99773.28;5028375;27;103542;-70
2023/02/16 00:57:27;;;;;;;26.30;17.80;;;;;;;2.32;81.14;99769.66;5019612;27;103813;-71
2023/02/16 01:00:00;;;;;;;26.67;18.87;;;;;;;2.25;80.44;99766.31;5023837;27;103222;-70
2023/02/16 01:02:29;;;;;;;23.27;17.10;;;;;;;2.27;80.55;99771.53;5027122;27;103121;-70
2023/02/16 01:04:56;;;;;;;27.43;18.90;;;;;;;1.72;82.14;99766.59;5017725;27;103649;-70
2023/02/16 01:13:00;;;;;;;19.30;14.03;;;;;;;1.88;85.62;99777.59;5022198;27;103243;-70
2023/02/16 01:15:28;;;;;;;22.67;14.63;;;;;;;2.14;83.69;99775.28;5023854;27;102883;-70
2023/02/16 01:17:59;;;;;;;18.40;14.17;;;;;;;2.20;82.35;99781.22;5017401;27;103172;-70
2023/02/16 01:20:27;;;;;;;18.53;14.60;;;;;;;2.24;81.29;99782.03;5024366;27;103257;-69
2023/02/16 01:22:55;;;;;;;20.40;14.73;;;;;;;2.17;80.61;99777.81;5022152;27;102789;-70
2023/02/16 01:25:24;;;;;;;23.93;17.63;;;;;;;2.17;80.10;99764.78;5025006;27;102986;-70
2023/02/16 01:27:53;;;;;;;22.67;16.93;;;;;;;1.97;79.73;99770.41;5008181;27;103220;-70
2023/02/16 01:30:22;;;;;;;22.47;15.50;;;;;;;2.09;79.93;99771.91;5014509;27;103142;-70
2023/02/16 01:32:51;;;;;;;26.37;18.90;;;;;;;1.81;79.74;99770.75;5020435;27;102697;-69
2023/02/16 01:35:19;;;;;;;31.83;21.87;;;;;;;1.73;81.67;99766.56;5017091;27;103123;-70
2023/02/16 01:37:48;;;;;;;29.73;20.07;;;;;;;1.94;81.66;99761.81;5018686;27;103729;-70
2023/02/16 01:40:30;;;;;;;27.27;17.97;;;;;;;2.10;81.44;99758.00;5020066;27;103161;-70
2023/02/16 01:43:06;;;;;;;26.57;18.73;;;;;;;2.15;81.08;99757.00;5023541;27;103097;-70
2023/02/16 01:45:38;;;;;;;24.20;17.47;;;;;;;2.24;80.93;99750.72;5019360;27;103120;-70
2023/02/16 01:48:13;;;;;;;24.50;16.33;;;;;;;2.27;80.22;99750.66;5019514;27;104373;-71
2023/02/16 01:50:49;;;;;;;28.60;21.87;;;;;;;1.85;79.02;99760.25;5016594;27;103299;-70
2023/02/16 01:53:23;;;;;;;29.77;19.00;;;;;;;1.83;80.51;99749.00;5021415;27;103169;-70
2023/02/16 01:55:58;;;;;;;29.03;21.93;;;;;;;1.41;81.55;99745.50;5018485;27;102976;-71
2023/02/16 01:58:35;;;;;;;32.00;22.00;;;;;;;1.46;81.98;99738.44;5030227;27;104504;-70
2023/02/16 02:01:38;;;;;;;25.70;18.50;;;;;;;0.93;85.03;99748.97;5025864;27;103206;-69
2023/02/16 02:07:00;;;;;;;21.63;15.87;;;;;;;0.54;89.34;99759.16;5019520;27;103011;-69
2023/02/16 02:09:37;;;;;;;26.50;18.10;;;;;;;0.81;89.15;99747.47;5016693;27;103228;-70
2023/02/16 02:12:15;;;;;;;24.30;16.47;;;;;;;1.00;88.46;99742.78;5012939;27;105751;-70
2023/02/16 02:14:42;;;;;;;23.43;17.57;;;;;;;1.04;87.27;99745.31;5002675;27;102770;-69
2023/02/16 02:17:14;;;;;;;25.50;18.37;;;;;;;1.00;88.67;99740.19;5020475;27;102666;-69
2023/02/16 02:19:50;;;;;;;25.90;15.77;;;;;;;1.43;87.69;99743.72;5025839;27;103257;-70
2023/02/16 02:26:08;;;;;;;22.50;14.87;;;;;;;1.72;84.35;99741.41;4982366;27;103791;-69
2023/02/16 02:28:45;;;;;;;19.53;15.27;;;;;;;1.70;83.75;99739.72;5013638;27;103885;-70
2023/02/16 02:31:21;;;;;;;19.47;13.07;;;;;;;1.77;83.33;99735.25;5015566;27;105349;-69
2023/02/16 02:34:03;;;;;;;24.23;16.40;;;;;;;1.81;82.70;99731.66;5023324;27;103505;-70
2023/02/16 02:36:39;;;;;;;18.97;14.13;;;;;;;1.79;81.75;99728.25;5011729;27;103128;-70
2023/02/16 02:39:25;;;;;;;25.27;17.97;;;;;;;1.58;80.52;99733.00;5012526;27;103826;-70
2023/02/16 02:42:04;;;;;;;22.07;14.90;;;;;;;1.67;80.81;99727.63;5015821;27;105036;-69
2023/02/16 02:45:04;;;;;;;21.73;16.13;;;;;;;1.51;80.18;99721.00;5021781;27;103196;-69
2023/02/16 02:47:40;;;;;;;21.47;15.50;;;;;;;1.29;81.59;99724.91;5019226;27;102948;-70
2023/02/16 02:51:27;;;;;;;26.03;16.63;;;;;;;1.10;83.03;99728.72;5016684;27;103714;-69
2023/02/16 02:53:30;;;;;;;22.20;15.87;;;;;;;1.37;82.89;99727.38;4957281;28;104059;-70
2023/02/16 03:01:41;;;;;;;26.20;16.40;;;;;;;1.06;82.82;99712.31;5010735;27;104155;-70
2023/02/16 03:04:13;;;;;;;24.87;17.23;;;;;;;1.09;82.65;99716.59;5021652;27;104460;-69
2023/02/16 03:06:47;;;;;;;21.63;16.47;;;;;;;0.80;83.84;99724.06;5022112;27;104121;-70
2023/02/16 03:09:16;;;;;;;20.60;13.17;;;;;;;0.93;85.14;99720.34;5026906;27;103161;-70
2023/02/16 03:14:34;;;;;;;18.67;13.90;;;;;;;1.35;83.11;99719.56;5020723;27;103354;-70
2023/02/16 03:31:14;;;;;;;21.73;14.20;;;;;;;1.36;83.58;99710.00;5023018;27;102704;-70
2023/02/16 03:33:46;;;;;;;24.63;16.00;;;;;;;1.04;83.94;99718.41;5024361;27;103336;-70
2023/02/16 03:36:14;;;;;;;21.80;16.77;;;;;;;0.76;85.81;99718.03;5026801;27;104086;-70
2023/02/16 03:38:42;;;;;;;19.47;13.47;;;;;;;1.10;85.82;99718.31;5026202;27;103219;-70
2023/02/16 03:41:12;;;;;;;25.30;17.17;;;;;;;1.30;84.72;99726.59;5023351;27;102996;-70
2023/02/16 03:43:40;;;;;;;18.27;12.87;;;;;;;1.37;84.06;99717.81;5024436;27;102770;-70
2023/02/16 03:46:07;;;;;;;22.10;12.63;;;;;;;1.49;83.14;99722.75;5017039;27;103813;-70
2023/02/16 03:48:35;;;;;;;24.10;16.93;;;;;;;1.30;81.41;99718.81;5018624;27;103215;-70
2023/02/16 03:51:07;;;;;;;20.23;13.13;;;;;;;1.24;81.36;99726.72;5027802;27;102762;-69
2023/02/16 03:53:34;;;;;;;22.80;14.27;;;;;;;1.38;81.70;99727.31;5025917;27;102795;-69
2023/02/16 03:56:02;;;;;;;17.17;13.07;;;;;;;1.48;81.51;99730.63;5026752;27;103386;-69
2023/02/16 03:58:30;;;;;;;22.63;16.23;;;;;;;1.51;80.53;99736.63;5017714;27;103258;-69
2023/02/16 04:00:59;;;;;;;21.40;15.27;;;;;;;1.46;79.62;99738.44;5018706;27;103448;-69
2023/02/16 04:03:27;;;;;;;22.80;15.20;;;;;;;1.50;79.90;99734.03;5016905;27;102947;-69
2023/02/16 04:05:55;;;;;;;18.00;14.00;;;;;;;1.50;79.42;99742.72;5024342;27;103809;-69
2023/02/16 04:08:24;;;;;;;22.03;14.60;;;;;;;1.38;79.42;99745.53;5021860;27;103312;-69
2023/02/16 04:10:53;;;;;;;20.73;13.03;;;;;;;1.48;80.03;99744.50;5040666;27;102732;-69
2023/02/16 04:13:19;;;;;;;24.60;16.70;;;;;;;1.47;79.22;99744.50;5047330;27;103920;-70
2023/02/16 04:15:50;;;;;;;25.73;17.90;;;;;;;1.27;78.50;99742.28;5025886;27;103223;-69
2023/02/16 04:18:17;;;;;;;20.77;15.83;;;;;;;1.26;79.42;99743.19;5033254;27;103203;-69
2023/02/16 04:20:45;;;;;;;23.70;16.03;;;;;;;1.29;79.37;99740.53;5036117;27;102661;-70
2023/02/16 04:23:15;;;;;;;23.63;17.00;;;;;;;1.25;78.83;99748.41;5030736;27;103802;-70
2023/02/16 04:25:44;;;;;;;20.73;14.03;;;;;;;1.35;79.34;99745.59;5032152;27;103229;-70
2023/02/16 04:28:12;;;;;;;23.13;17.23;;;;;;;0.97;79.58;99751.50;5032168;27;103234;-70
2023/02/16 04:30:40;;;;;;;23.20;15.33;;;;;;;1.01;80.70;99750.56;5026075;27;102672;-69
2023/02/16 04:33:08;;;;;;;23.67;16.20;;;;;;;0.77;82.01;99744.91;5026561;27;102598;-71
2023/02/16 04:35:35;;;;;;;26.63;16.50;;;;;;;0.91;82.36;99742.94;5026590;27;103344;-70
2023/02/16 04:38:03;;;;;;;18.37;13.53;;;;;;;1.15;82.52;99747.75;5034156;27;103155;-70
2023/02/16 04:40:31;;;;;;;26.00;17.53;;;;;;;1.10;81.30;99749.53;5030401;27;103339;-70
2023/02/16 04:43:00;;;;;;;23.60;16.50;;;;;;;0.81;81.24;99741.41;5030780;27;103823;-69
2023/02/16 04:45:28;;;;;;;20.50;15.37;;;;;;;0.79;82.83;99749.22;5031551;27;103656;-70
2023/02/16 04:47:55;;;;;;;22.17;15.53;;;;;;;0.93;82.50;99746.38;5022866;27;103230;-69
2023/02/16 04:50:23;;;;;;;24.07;16.63;;;;;;;0.86;82.48;99744.78;5032433;27;102993;-69
2023/02/16 04:52:51;;;;;;;21.47;15.90;;;;;;;0.56;83.99;99746.97;5038206;27;103671;-68
2023/02/16 04:55:19;;;;;;;22.53;16.40;;;;;;;-0.02;86.00;99746.97;5036238;27;103356;-68
2023/02/16 04:57:47;;;;;;;23.20;16.13;;;;;;;0.17;87.44;99746.72;5035170;27;103359;-71
2023/02/16 05:00:16;;;;;;;23.13;16.87;;;;;;;0.15;88.27;99748.47;5033589;27;102789;-69
2023/02/16 05:02:44;;;;;;;26.13;16.97;;;;;;;-0.01;88.58;99753.91;5031295;27;102717;-69
2023/02/16 05:05:12;;;;;;;26.87;16.47;;;;;;;0.05;90.07;99745.16;5030803;27;103913;-69
2023/02/16 05:07:40;;;;;;;23.47;17.17;;;;;;;-0.22;92.21;99750.69;5028963;27;103744;-69
2023/02/16 05:10:10;;;;;;;21.60;16.77;;;;;;;-0.24;93.20;99748.13;5033205;27;104211;-68
2023/02/16 05:15:38;;;;;;;23.63;16.17;;;;;;;0.17;91.40;99738.94;4952590;28;103324;-68
2023/02/16 05:18:06;;;;;;;20.53;16.20;;;;;;;0.11;91.36;99745.09;5015791;27;103296;-68
2023/02/16 05:23:19;;;;;;;23.30;16.20;;;;;;;0.33;91.95;99754.28;5030973;27;102965;-70
2023/02/16 05:25:47;;;;;;;19.23;13.93;;;;;;;0.52;91.11;99747.91;5028767;27;107150;-68
2023/02/16 05:28:15;;;;;;;22.10;14.87;;;;;;;0.64;89.65;99743.41;5028693;27;103761;-69
2023/02/16 05:30:47;;;;;;;18.77;12.67;;;;;;;0.66;89.66;99749.44;5026255;27;102709;-70
2023/02/16 05:33:15;;;;;;;21.83;14.70;;;;;;;0.47;90.17;99747.13;5028020;27;102718;-70
2023/02/16 05:35:43;;;;;;;23.47;14.63;;;;;;;0.47;90.38;99756.69;5049412;27;103983;-70
2023/02/16 05:38:10;;;;;;;17.77;12.30;;;;;;;0.74;89.46;99757.97;5029409;27;103344;-70
2023/02/16 05:40:38;;;;;;;19.97;15.43;;;;;;;0.91;87.87;99758.56;5035439;27;102768;-70
2023/02/16 05:43:06;;;;;;;20.73;14.47;;;;;;;0.80;84.56;99758.75;5031561;27;104036;-70
2023/02/16 05:45:34;;;;;;;19.33;14.03;;;;;;;0.66;84.14;99757.25;5030516;27;103494;-69
2023/02/16 05:48:03;;;;;;;21.53;12.67;;;;;;;0.82;84.11;99761.31;5028898;27;103264;-70
2023/02/16 05:50:30;;;;;;;18.33;12.97;;;;;;;0.81;83.07;99760.47;5024008;27;102646;-70
2023/02/16 05:52:59;;;;;;;13.17;10.40;;;;;;;0.96;83.35;99759.34;5027366;27;103691;-70
2023/02/16 05:55:26;;;;;;;20.50;15.40;;;;;;;0.75;82.47;99762.31;5031477;27;104004;-70
2023/02/16 05:57:54;;;;;;;19.80;14.47;;;;;;;0.52;84.08;99767.88;5026587;27;103359;-70
2023/02/16 06:00:22;;;;;;;21.87;15.80;;;;;;;0.41;87.55;99773.22;5030931;27;103297;-70
2023/02/16 06:02:50;;;;;;;22.90;14.63;;;;;;;0.63;86.21;99767.69;5028864;27;103013;-70
2023/02/16 06:05:19;;;;;;;19.27;12.63;;;;;;;0.91;85.89;99774.16;5029898;27;103300;-69
2023/02/16 06:07:47;;;;;;;20.50;14.00;;;;;;;0.90;83.95;99777.69;5031381;27;103195;-70
2023/02/16 06:10:15;;;;;;;17.43;12.13;;;;;;;0.99;83.97;99773.16;5026944;27;103135;-69
2023/02/16 06:12:45;;;;;;;19.90;12.40;;;;;;;1.00;82.82;99774.03;5028050;27;104038;-69
2023/02/16 06:15:13;;;;;;;18.50;13.80;;;;;;;0.93;82.02;99781.06;5027442;27;104030;-69
2023/02/16 06:17:43;;;;;;;17.50;13.00;;;;;;;0.59;82.00;99788.53;5027082;27;103191;-69
2023/02/16 06:20:11;;;;;;;18.70;13.57;;;;;;;0.22;86.50;99799.50;5032318;27;102721;-69
2023/02/16 06:22:40;;;;;;;21.87;14.20;;;;;;;0.34;88.35;99796.72;5036732;27;102642;-68
2023/02/16 06:25:10;;;;;;;16.97;14.00;;;;;;;0.26;88.07;99796.84;5031698;27;104337;-68
2023/02/16 06:27:38;;;;;;;15.83;11.53;;;;;;;0.66;87.54;99791.91;5028059;27;103292;-70
2023/02/16 06:30:07;;;;;;;20.10;13.23;;;;;;;0.89;85.99;99796.75;5031047;27;103955;-70
2023/02/16 06:32:35;;;;;;;21.37;14.43;;;;;;;0.77;84.49;99786.53;5000609;27;104564;-70
2023/02/16 06:35:03;;;;;;;15.93;11.20;;;;;;;0.71;84.90;99786.63;5014392;27;103396;-71
2023/02/16 06:37:31;;;;;;;19.47;13.60;;;;;;;0.81;84.67;99793.44;5018787;27;103510;-70
2023/02/16 06:40:00;;;;;;;19.80;12.47;;;;;;;0.77;84.76;99794.34;5019538;27;102755;-70
2023/02/16 06:42:28;;;;;;;19.33;14.23;;;;;;;0.94;85.01;99794.94;5023283;27;103122;-69
2023/02/16 06:44:56;;;;;;;17.20;11.20;;;;;;;1.03;84.81;99792.19;5020280;27;103827;-69
2023/02/16 06:47:23;;;;;;;17.57;12.47;;;;;;;1.15;84.43;99786.78;5020928;27;104056;-70
2023/02/16 06:49:51;;;;;;;16.83;11.57;;;;;;;1.16;83.77;99791.09;5018086;27;102791;-69
2023/02/16 06:52:19;;;;;;;19.67;13.20;;;;;;;1.02;83.11;99795.66;5014603;27;102735;-69
2023/02/16 06:54:47;;;;;;;17.90;13.00;;;;;;;0.91;84.18;99790.66;5014115;27;103219;-70
2023/02/16 06:57:16;;;;;;;19.10;12.73;;;;;;;1.10;84.18;99797.25;5014055;27;103223;-70
2023/02/16 06:59:44;;;;;;;15.63;10.93;;;;;;;1.11;85.44;99803.31;5029407;27;102881;-69
2023/02/16 07:02:12;;;;;;;19.30;12.73;;;;;;;0.97;84.87;99805.31;5015414;27;102770;-69
2023/02/16 07:04:39;;;;;;;20.83;14.10;;;;;;;1.02;85.34;99808.69;5007453;27;104148;-70
2023/02/16 07:07:07;;;;;;;19.57;12.07;;;;;;;1.21;85.63;99810.09;5028252;27;103188;-70
2023/02/16 07:09:36;;;;;;;19.10;14.47;;;;;;;1.00;85.73;99800.06;5026041;27;102638;-70
2023/02/16 07:12:04;;;;;;;19.70;14.03;;;;;;;1.10;86.65;99791.19;5024251;27;102900;-69
2023/02/16 07:14:33;;;;;;;16.73;12.93;;;;;;;1.31;86.23;99798.63;5019928;27;103755;-70
2023/02/16 07:17:03;;;;;;;18.37;13.23;;;;;;;1.47;85.36;99794.88;5023808;27;103169;-70
2023/02/16 07:19:32;;;;;;;19.97;14.30;;;;;;;1.73;84.30;99800.44;5024278;27;102588;-69
2023/02/16 07:22:00;;;;;;;19.53;13.87;;;;;;;1.72;84.52;99796.13;5031399;27;103060;-70
2023/02/16 07:24:28;;;;;;;23.37;15.47;;;;;;;1.93;85.09;99799.19;5042231;27;103348;-70
2023/02/16 07:26:58;;;;;;;20.90;14.73;;;;;;;1.91;84.54;99800.97;5046352;27;102674;-70
2023/02/16 07:29:26;;;;;;;20.07;13.70;;;;;;;2.12;83.65;99806.59;5027731;27;102835;-70
2023/02/16 07:31:56;;;;;;;18.20;13.57;;;;;;;2.09;85.75;99806.66;5041364;27;102696;-69
2023/02/16 07:34:24;;;;;;;19.47;14.80;;;;;;;2.10;85.54;99807.53;5037544;27;104344;-69
2023/02/16 07:36:52;;;;;;;19.93;13.70;;;;;;;2.70;83.85;99808.78;5047971;27;104374;-69
2023/02/16 07:39:20;;;;;;;18.77;13.90;;;;;;;3.30;81.88;99803.81;5044243;27;102632;-69
2023/02/16 07:41:47;;;;;;;20.57;14.40;;;;;;;3.46;80.71;99806.88;5043520;27;102842;-69
2023/02/16 07:44:17;;;;;;;18.73;12.37;;;;;;;3.81;79.33;99804.19;5013175;27;103213;-70
2023/02/16 07:46:45;;;;;;;21.57;13.57;;;;;;;4.09;78.28;99810.38;5041108;27;103171;-69
2023/02/16 07:49:15;;;;;;;15.27;11.63;;;;;;;4.38;76.83;99806.03;5042309;27;103083;-69
2023/02/16 07:51:43;;;;;;;18.87;13.07;;;;;;;4.80;75.84;99807.31;5039962;27;103133;-70
2023/02/16 07:54:11;;;;;;;15.83;12.13;;;;;;;4.38;77.40;99816.50;5044793;27;103142;-69
2023/02/16 07:56:39;;;;;;;18.83;12.23;;;;;;;4.61;76.35;99814.03;5046501;27;103358;-69
2023/02/16 07:59:07;;;;;;;17.60;11.50;;;;;;;4.99;76.92;99816.31;5044933;27;103096;-68
2023/02/16 08:01:35;;;;;;;17.17;13.43;;;;;;;5.28;74.33;99818.81;5038622;27;103433;-68
2023/02/16 08:04:06;;;;;;;17.77;12.40;;;;;;;5.15;75.54;99817.53;5042781;27;103331;-68
2023/02/16 08:06:35;;;;;;;15.20;11.60;;;;;;;5.56;73.61;99817.88;5038795;27;103242;-68
2023/02/16 08:09:03;;;;;;;16.80;10.17;;;;;;;5.94;72.63;99816.59;5034195;27;102715;-68
2023/02/16 08:11:33;;;;;;;13.97;10.60;;;;;;;6.54;70.15;99823.97;5038048;27;103973;-68
2023/02/16 08:14:01;;;;;;;15.40;10.50;;;;;;;6.70;68.94;99818.06;5029127;27;103201;-68
2023/02/16 08:16:29;;;;;;;15.43;9.67;;;;;;;6.95;69.43;99817.94;5032706;27;103794;-68
2023/02/16 08:18:59;;;;;;;20.07;12.23;;;;;;;6.95;68.31;99816.16;5038821;27;102627;-68
2023/02/16 08:21:29;;;;;;;16.70;12.30;;;;;;;7.24;67.39;99819.38;5033601;27;102647;-68
2023/02/16 08:24:00;;;;;;;17.40;11.47;;;;;;;7.46;66.76;99813.19;5027550;27;104640;-68
2023/02/16 08:26:35;;;;;;;15.97;12.30;;;;;;;7.68;65.40;99804.34;5027688;27;103246;-68
2023/02/16 08:29:04;;;;;;;14.10;11.37;;;;;;;7.87;66.30;99807.88;5031344;27;102789;-68
2023/02/16 08:31:35;;;;;;;14.33;11.60;;;;;;;8.19;65.10;99807.34;5033344;27;104012;-67
2023/02/16 08:34:04;;;;;;;16.33;11.57;;;;;;;8.41;63.01;99802.81;5027313;27;103302;-68
2023/02/16 08:36:35;;;;;;;18.90;12.27;;;;;;;8.31;63.45;99805.97;5033187;27;103251;-68
2023/02/16 08:39:06;;;;;;;15.80;11.33;;;;;;;8.77;62.29;99800.22;5047824;27;102616;-68
2023/02/16 08:41:36;;;;;;;16.30;10.60;;;;;;;9.08;61.42;99802.25;5035804;27;102921;-67
2023/02/16 08:44:05;;;;;;;13.53;10.23;;;;;;;9.43;60.83;99801.34;5039490;27;103350;-68
2023/02/16 08:46:36;;;;;;;13.20;10.50;;;;;;;9.89;60.06;99795.41;5040138;27;103157;-68
2023/02/16 08:49:04;;;;;;;13.27;9.03;;;;;;;10.04;59.65;99799.06;5051639;27;102887;-68
2023/02/16 08:51:34;;;;;;;15.53;12.40;;;;;;;9.65;60.93;99806.41;5019932;27;102739;-68
2023/02/16 08:54:06;;;;;;;14.33;10.73;;;;;;;9.90;58.55;99797.16;5043865;27;103215;-68
2023/02/16 08:56:34;;;;;;;15.97;11.17;;;;;;;10.39;60.25;99799.81;5039561;27;104468;-69
2023/02/16 08:59:02;;;;;;;13.37;10.97;;;;;;;10.60;57.38;99796.03;5048823;27;102708;-68
2023/02/16 09:01:31;;;;;;;16.47;10.83;;;;;;;10.43;56.25;99785.53;5045130;27;102885;-68
2023/02/16 09:03:59;;;;;;;15.43;11.80;;;;;;;10.81;56.74;99791.31;5042353;27;103670;-68
2023/02/16 09:06:26;;;;;;;17.00;12.00;;;;;;;10.42;58.93;99789.09;5045834;27;104225;-68
2023/02/16 09:08:56;;;;;;;12.00;9.77;;;;;;;10.91;57.80;99788.09;5041911;27;102742;-68
2023/02/16 09:11:25;;;;;;;19.80;12.40;;;;;;;10.89;55.53;99787.28;5048828;27;102862;-68
2023/02/16 09:13:53;;;;;;;16.90;11.43;;;;;;;10.94;55.99;99789.69;5032002;27;103305;-68
2023/02/16 09:16:26;;;;;;;15.83;12.00;;;;;;;10.82;55.57;99783.31;5045178;27;104610;-68
2023/02/16 09:18:56;;;;;;;12.40;9.57;;;;;;;10.80;56.82;99785.19;5043265;27;104421;-68
2023/02/16 09:21:25;;;;;;;12.00;10.73;;;;;;;11.13;54.17;99781.56;5045460;27;104082;-68
2023/02/16 09:23:56;;;;;;;15.40;11.17;;;;;;;11.42;55.35;99780.72;5033912;27;103031;-68
2023/02/16 09:26:28;;;;;;;17.13;12.37;;;;;;;10.71;54.52;99779.56;5030445;27;103274;-68
2023/02/16 09:28:56;;;;;;;14.23;11.03;;;;;;;11.39;54.74;99783.56;5031578;27;102752;-68
2023/02/16 09:31:28;;;;;;;17.30;11.60;;;;;;;11.36;54.08;99786.38;5033403;27;102880;-68
2023/02/16 09:33:58;;;;;;;18.00;11.67;;;;;;;11.60;53.53;99784.91;5031267;27;103222;-68
2023/02/16 09:36:26;;;;;;;15.83;10.83;;;;;;;11.94;52.45;99781.13;5027121;27;103248;-68
2023/02/16 09:38:55;;;;;;;13.20;11.63;;;;;;;12.13;52.31;99781.72;5019991;27;102763;-68
2023/02/16 09:41:45;;;;;;;18.97;11.50;;;;;;;11.84;52.58;99774.72;5037943;27;102719;-68
2023/02/16 09:44:21;;;;;;;12.63;10.63;;;;;;;12.14;52.88;99776.34;5036499;27;103501;-68
2023/02/16 09:46:50;;;;;;;18.00;11.73;;;;;;;11.94;52.34;99776.69;5039829;27;104068;-68
2023/02/16 09:49:26;;;;;;;13.67;10.10;;;;;;;12.16;53.57;99770.91;5038753;27;102905;-68
2023/02/16 09:52:02;;;;;;;17.17;11.80;;;;;;;12.49;51.65;99778.59;5036017;27;102759;-68
2023/02/16 09:54:41;;;;;;;16.77;11.80;;;;;;;12.31;52.38;99769.13;5043339;27;102988;-68
2023/02/16 09:57:19;;;;;;;17.27;10.80;;;;;;;12.51;51.43;99766.06;5037109;27;103333;-68
2023/02/16 09:59:55;;;;;;;12.07;10.17;;;;;;;12.61;52.90;99761.88;5024017;27;103142;-68
2023/02/16 10:02:41;;;;;;;18.87;11.83;;;;;;;12.19;52.38;99765.44;5044429;27;103850;-68
2023/02/16 10:05:17;;;;;;;13.83;10.30;;;;;;;12.52;52.59;99762.50;5029300;27;104203;-68
2023/02/16 10:07:56;;;;;;;18.30;12.17;;;;;;;12.65;52.16;99764.25;5042636;27;103846;-68
2023/02/16 10:10:27;;;;;;;13.63;9.37;;;;;;;12.99;51.68;99754.09;5033061;27;102826;-68
2023/02/16 10:13:04;;;;;;;19.83;12.77;;;;;;;12.59;51.02;99761.13;5041041;27;103283;-67
2023/02/16 10:15:33;;;;;;;18.70;12.73;;;;;;;12.63;51.25;99765.31;5034481;27;104006;-68
2023/02/16 10:18:08;;;;;;;18.53;13.80;;;;;;;12.78;51.93;99761.66;5027293;27;104166;-68
2023/02/16 10:20:40;;;;;;;15.57;12.77;;;;;;;12.95;50.58;99761.41;5041607;27;104774;-68
2023/02/16 10:23:23;;;;;;;15.13;11.97;;;;;;;12.86;50.84;99762.00;5031138;27;103946;-68
2023/02/16 10:25:55;;;;;;;19.33;13.63;;;;;;;13.24;50.09;99763.03;5036125;27;103837;-68
2023/02/16 10:28:32;;;;;;;17.23;12.23;;;;;;;13.33;49.06;99753.63;5038564;27;103045;-68
2023/02/16 10:31:04;;;;;;;16.33;12.40;;;;;;;12.73;50.08;99755.81;5043697;27;102628;-68
2023/02/16 10:33:41;;;;;;;17.73;11.20;;;;;;;13.43;49.81;99751.19;5029037;27;103819;-68
2023/02/16 10:36:21;;;;;;;18.10;11.33;;;;;;;13.52;49.22;99753.22;5030550;27;103240;-68
2023/02/16 10:38:58;;;;;;;19.30;12.57;;;;;;;13.35;49.29;99747.25;5041392;27;103199;-68
2023/02/16 10:41:32;;;;;;;15.17;11.57;;;;;;;13.80;48.73;99753.03;5029548;27;102579;-68
2023/02/16 10:44:10;;;;;;;16.47;11.03;;;;;;;13.89;48.08;99741.78;5031879;27;103753;-68
2023/02/16 10:46:41;;;;;;;17.13;10.97;;;;;;;13.84;47.98;99738.56;5014631;27;104402;-68
2023/02/16 10:49:14;;;;;;;15.33;10.83;;;;;;;14.40;47.19;99730.13;5032181;27;103246;-68
2023/02/16 10:51:51;;;;;;;15.10;11.20;;;;;;;14.29;45.89;99727.38;5038692;27;102698;-68
2023/02/16 10:54:25;;;;;;;16.27;11.13;;;;;;;14.76;46.24;99731.97;5038632;27;103223;-68
2023/02/16 10:56:59;;;;;;;14.10;9.87;;;;;;;14.87;46.15;99733.81;5039347;27;103276;-68
2023/02/16 10:59:37;;;;;;;12.80;8.93;;;;;;;14.92;46.35;99734.34;5042207;27;103312;-68
2023/02/16 11:02:20;;;;;;;14.97;9.93;;;;;;;14.76;44.99;99726.66;5047364;27;102750;-68
2023/02/16 11:04:51;;;;;;;15.87;9.93;;;;;;;14.84;44.35;99723.41;5038945;27;104219;-67
2023/02/16 11:07:21;;;;;;;13.67;9.87;;;;;;;15.14;44.14;99720.28;5043846;27;104060;-68
2023/02/16 11:09:51;;;;;;;11.43;9.47;;;;;;;14.59;44.49;99723.50;5034441;27;103227;-68
2023/02/16 11:12:29;;;;;;;10.47;8.37;;;;;;;15.48;44.09;99709.66;5050057;27;102570;-74
2023/02/16 11:15:02;;;;;;;13.67;8.83;;;;;;;15.42;42.62;99709.25;5033423;27;102736;-72
2023/02/16 11:17:33;;;;;;;14.63;9.30;;;;;;;14.96;42.82;99717.19;5033046;27;104097;-74
2023/02/16 11:20:08;;;;;;;13.17;9.57;;;;;;;15.55;41.93;99710.06;5034867;27;103195;-74
2023/02/16 11:22:38;;;;;;;13.33;10.50;;;;;;;15.08;42.58;99713.59;5034153;27;102698;-73
2023/02/16 11:25:25;;;;;;;15.00;9.60;;;;;;;14.78;43.83;99710.56;5034297;27;103871;-74
2023/02/16 11:27:56;;;;;;;15.50;9.37;;;;;;;15.12;42.37;99704.44;5038115;27;103275;-74
2023/02/16 11:30:32;;;;;;;14.97;9.27;;;;;;;15.84;41.74;99699.78;5046704;27;103252;-73
2023/02/16 11:33:02;;;;;;;19.03;9.90;;;;;;;15.09;42.71;99696.69;5022862;27;102757;-73
2023/02/16 11:35:32;;;;;;;13.03;8.33;;;;;;;15.63;42.77;99691.66;5040678;27;102753;-74
2023/02/16 11:38:00;;;;;;;10.10;8.30;;;;;;;16.28;41.14;99689.09;5036252;27;103502;-73
2023/02/16 11:40:31;;;;;;;16.40;9.40;;;;;;;16.01;41.99;99693.97;5035166;27;102973;-73
2023/02/16 11:43:01;;;;;;;12.17;9.07;;;;;;;16.22;41.65;99690.44;5038888;27;102886;-74
2023/02/16 11:45:33;;;;;;;13.53;9.43;;;;;;;16.49;40.71;99687.38;5043087;27;104327;-77
2023/02/16 11:48:04;;;;;;;13.23;9.37;;;;;;;17.01;40.45;99683.16;5051702;27;102945;-75
2023/02/16 11:50:34;;;;;;;10.50;8.27;;;;;;;17.49;38.94;99678.19;5047419;27;103322;-74
2023/02/16 11:53:15;;;;;;;11.70;8.25;;;;;;;15.98;39.70;99675.56;5048686;27;102679;-75
2023/02/16 11:55:46;;;;;;;13.02;8.73;;;;;;;15.73;40.27;99670.47;5043169;27;103996;-75
2023/02/16 11:58:19;;;;;;;10.65;7.75;;;;;;;16.39;39.72;99665.13;5036032;27;103386;-76
2023/02/16 12:01:07;;;;;;;13.18;8.15;;;;;;;17.50;39.88;99653.97;5033451;27;103194;-73
2023/02/16 12:04:00;;;;;;;11.88;8.68;;;;;;;17.19;37.81;99649.56;5052028;27;104228;-75
2023/02/16 12:06:38;;;;;;;10.90;7.75;;;;;;;18.04;39.00;99650.19;5042846;27;103794;-70
2023/02/16 12:09:14;;;;;;;14.73;8.55;;;;;;;16.78;38.71;99651.22;5038110;27;103408;-71
2023/02/16 12:11:56;;;;;;;14.80;8.50;;;;;;;16.59;39.47;99648.34;5047494;27;103180;-74
2023/02/16 12:14:35;;;;;;;13.23;9.38;;;;;;;16.42;40.06;99648.00;5035679;27;102882;-73
2023/02/16 12:17:21;;;;;;;12.25;9.05;;;;;;;17.47;38.88;99648.91;5044508;27;102798;-72
2023/02/16 12:19:57;;;;;;;11.25;8.63;;;;;;;17.91;37.83;99637.91;5038820;27;104135;-72